createdAt,value
2018-04-12T06:27:07.162Z,0.70
2018-04-12T06:29:33.524Z,0.90
2018-04-12T06:32:00.640Z,1.00
2018-04-12T06:34:27.076Z,0.90
2018-04-12T06:36:53.489Z,1.10
2018-04-12T06:39:19.919Z,0.80
2018-04-12T06:41:46.284Z,1.10
2018-04-12T06:44:12.713Z,0.90
2018-04-12T06:46:39.106Z,0.80
2018-04-12T06:49:06.219Z,0.80
2018-04-12T06:51:32.669Z,0.80
2018-04-12T06:53:59.039Z,0.75
2018-04-12T06:56:25.423Z,1.10
2018-04-12T06:58:51.802Z,0.80
2018-04-12T07:01:18.184Z,0.90
2018-04-12T07:03:44.612Z,1.10
2018-04-12T07:06:10.984Z,0.82
2018-04-12T07:08:38.127Z,1.10
2018-04-12T07:11:04.487Z,0.90
2018-04-12T07:13:30.908Z,1.20
2018-04-12T07:15:58.036Z,1.08
2018-04-12T07:18:24.409Z,0.80
2018-04-12T07:20:50.796Z,1.10
2018-04-12T07:23:17.152Z,0.90
2018-04-12T07:25:44.281Z,0.90
2018-04-12T07:28:10.689Z,1.10
2018-04-12T07:30:37.052Z,1.20
2018-04-12T07:33:10.565Z,1.10
2018-04-12T07:35:36.941Z,1.10
2018-04-12T07:38:03.363Z,0.85
2018-04-12T07:40:29.820Z,0.80
2018-04-12T07:42:56.209Z,0.80
2018-04-12T07:45:23.335Z,0.90
2018-04-12T07:47:49.740Z,1.00
2018-04-12T07:50:16.134Z,0.80
2018-04-12T07:52:43.267Z,0.90
2018-04-12T07:55:09.645Z,0.80
2018-04-12T07:57:36.048Z,0.90
2018-04-12T08:00:03.207Z,1.00
2018-04-12T08:02:30.338Z,0.80
2018-04-12T08:04:56.707Z,1.00
2018-04-12T08:07:23.112Z,0.90
2018-04-12T08:09:49.507Z,1.00
2018-04-12T08:12:15.909Z,0.80
2018-04-12T08:14:42.308Z,0.90
2018-04-12T08:17:08.740Z,0.90
2018-04-12T08:19:35.139Z,0.93
2018-04-12T08:22:01.497Z,1.10
2018-04-12T08:24:27.884Z,1.02
2018-04-12T08:26:54.279Z,1.08
2018-04-12T08:29:20.636Z,0.93
2018-04-12T08:31:47.773Z,1.20
2018-04-12T08:34:14.895Z,0.80
2018-04-12T08:36:41.246Z,0.90
2018-04-12T08:39:07.654Z,0.90
2018-04-12T08:41:34.052Z,1.10
2018-04-12T08:44:00.431Z,1.00
2018-04-12T08:46:26.812Z,1.00
2018-04-12T08:48:53.187Z,1.20
2018-04-12T08:51:19.573Z,1.00
2018-04-12T08:53:45.956Z,1.37
2018-04-12T08:56:12.357Z,1.00
2018-04-12T08:58:38.736Z,1.20
2018-04-12T09:01:05.103Z,1.20
2018-04-12T09:03:32.229Z,0.98
2018-04-12T09:05:59.345Z,1.10
2018-04-12T09:08:25.744Z,1.10
2018-04-12T09:10:52.871Z,1.00
2018-04-12T09:13:19.240Z,1.10
2018-04-12T09:15:45.620Z,0.90
2018-04-12T09:18:12.007Z,1.17
2018-04-12T09:20:38.391Z,1.20
2018-04-12T09:23:04.779Z,1.00
2018-04-12T09:25:32.036Z,1.10
2018-04-12T09:27:58.427Z,1.20
2018-04-12T09:30:24.783Z,1.25
2018-04-12T09:32:51.903Z,1.30
2018-04-12T09:35:18.285Z,1.10
2018-04-12T09:37:44.643Z,1.30
2018-04-12T09:40:11.027Z,1.50
2018-04-12T09:42:38.236Z,1.00
2018-04-12T09:45:04.696Z,1.20
2018-04-12T09:47:31.055Z,1.00
2018-04-12T09:49:58.181Z,1.10
2018-04-12T09:52:24.558Z,1.00
2018-04-12T09:54:50.924Z,1.10
2018-04-12T09:57:17.331Z,1.40
2018-04-12T09:59:43.701Z,1.48
2018-04-12T10:02:10.125Z,1.60
2018-04-12T10:04:42.728Z,1.58
2018-04-12T10:07:09.143Z,1.77
2018-04-12T10:09:35.520Z,1.77
2018-04-12T10:12:02.676Z,1.70
2018-04-12T10:14:29.041Z,1.50
2018-04-12T10:16:55.418Z,1.45
2018-04-12T10:19:22.573Z,1.30
2018-04-12T10:21:49.708Z,1.70
2018-04-12T10:24:16.115Z,1.80
2018-04-12T10:26:42.486Z,1.30
2018-04-12T10:29:08.880Z,1.50
2018-04-12T10:31:35.320Z,1.70
2018-04-12T10:34:01.713Z,1.40
2018-04-12T10:36:28.863Z,1.40
2018-04-12T10:38:55.968Z,1.60
2018-04-12T10:41:22.355Z,1.92
2018-04-12T10:43:48.760Z,1.60
2018-04-12T10:46:15.194Z,1.70
2018-04-12T10:48:41.560Z,1.60
2018-04-12T10:51:07.991Z,1.50
2018-04-12T10:53:34.408Z,1.50
2018-04-12T10:56:01.547Z,1.00
2018-04-12T10:58:27.943Z,1.02
2018-04-12T11:00:54.304Z,1.02
2018-04-12T11:03:20.724Z,1.20
2018-04-12T11:05:47.102Z,1.23
2018-04-12T11:08:13.528Z,1.10
2018-04-12T11:10:40.651Z,1.10
2018-04-12T11:13:07.753Z,0.90
2018-04-12T11:15:34.132Z,1.00
2018-04-12T11:18:00.512Z,1.00
2018-04-12T11:20:26.883Z,1.23
2018-04-12T11:22:53.281Z,1.02
2018-04-12T11:25:19.647Z,1.12
2018-04-12T11:27:46.029Z,1.20
2018-04-12T11:30:13.176Z,1.00
2018-04-12T11:32:40.284Z,1.20
2018-04-12T11:35:06.667Z,0.90
2018-04-12T11:37:33.783Z,1.12
2018-04-12T11:40:00.203Z,1.00
2018-04-12T11:42:26.576Z,1.10
2018-04-12T11:44:53.760Z,1.20
2018-04-12T11:47:20.220Z,1.20
2018-04-12T11:49:46.718Z,1.15
2018-04-12T11:52:13.141Z,1.50
2018-04-12T11:54:40.296Z,1.20
2018-04-12T11:57:07.540Z,1.00
2018-04-12T11:59:33.933Z,0.80
2018-04-12T12:02:00.303Z,0.90
2018-04-12T12:04:26.679Z,1.10
2018-04-12T12:06:53.070Z,1.10
2018-04-12T12:09:20.203Z,1.00
2018-04-12T12:11:46.631Z,1.00
2018-04-12T12:14:13.018Z,1.10
2018-04-12T12:16:39.430Z,1.00
2018-04-12T12:19:06.600Z,0.90
2018-04-12T12:21:33.710Z,0.98
2018-04-12T12:24:00.170Z,1.25
2018-04-12T12:26:27.303Z,0.90
2018-04-12T12:28:53.723Z,1.05
2018-04-12T12:31:20.100Z,1.00
2018-04-12T12:33:47.338Z,1.10
2018-04-12T12:36:13.767Z,0.80
2018-04-12T12:38:40.163Z,0.98
2018-04-12T12:41:06.610Z,1.20
2018-04-12T12:43:32.980Z,1.00
2018-04-12T12:46:00.125Z,0.90
2018-04-12T12:48:26.506Z,1.00
2018-04-12T12:50:52.892Z,1.20
2018-04-12T12:53:20.121Z,0.80
2018-04-12T12:55:46.590Z,0.80
2018-04-12T12:58:13.741Z,1.10
2018-04-12T13:00:40.863Z,0.70
2018-04-12T13:03:07.236Z,0.98
2018-04-12T13:05:34.433Z,1.00
2018-04-12T13:08:00.962Z,0.95
2018-04-12T13:10:27.445Z,1.00
2018-04-12T13:12:53.885Z,0.90
2018-04-12T13:15:21.032Z,0.93
2018-04-12T13:17:47.469Z,0.80
2018-04-12T13:20:14.593Z,0.97
2018-04-12T13:22:41.024Z,0.90
2018-04-12T13:25:07.389Z,0.82
2018-04-12T13:27:34.562Z,0.80
2018-04-12T13:30:00.972Z,0.70
2018-04-12T13:32:27.360Z,1.00
2018-04-12T13:34:54.821Z,0.88
2018-04-12T13:37:21.240Z,0.90
2018-04-12T13:39:47.676Z,0.82
2018-04-12T13:42:14.108Z,0.77
2018-04-12T13:44:40.468Z,0.90
2018-04-12T13:47:06.952Z,0.90
2018-04-12T13:49:34.052Z,0.90
2018-04-12T13:52:00.491Z,1.23
2018-04-12T13:54:26.988Z,0.90
2018-04-12T13:56:53.424Z,0.80
2018-04-12T13:59:19.817Z,0.80
2018-04-12T14:01:46.230Z,0.90
2018-04-12T14:04:12.620Z,0.90
2018-04-12T14:06:38.988Z,0.80
2018-04-12T14:09:05.399Z,0.80
2018-04-12T14:11:31.801Z,1.00
2018-04-12T14:13:58.919Z,0.90
2018-04-12T14:16:25.321Z,1.00
2018-04-12T14:18:51.771Z,0.90
2018-04-12T14:21:18.151Z,0.80
2018-04-12T14:23:45.292Z,1.00
2018-04-12T14:26:11.671Z,1.10
2018-04-12T14:28:38.066Z,0.80
2018-04-12T14:31:04.461Z,0.90
2018-04-12T14:33:30.836Z,0.85
2018-04-12T14:35:57.970Z,0.85
2018-04-12T14:38:24.344Z,0.80
2018-04-12T14:40:50.727Z,0.90
2018-04-12T14:43:17.115Z,0.82
2018-04-12T14:45:43.495Z,0.98
2018-04-12T14:48:09.885Z,0.80
2018-04-12T14:50:36.556Z,0.70
2018-04-12T14:53:02.953Z,0.88
2018-04-12T14:55:29.360Z,1.10
2018-04-12T14:57:56.520Z,1.40
2018-04-12T15:00:23.627Z,0.90
2018-04-12T15:02:50.016Z,1.10
2018-04-12T15:05:16.438Z,1.20
2018-04-12T15:07:43.575Z,0.70
2018-04-12T15:10:09.972Z,1.00
2018-04-12T15:12:36.342Z,0.90
2018-04-12T15:15:02.765Z,1.17
2018-04-12T15:17:29.147Z,1.00
2018-04-12T15:19:55.509Z,0.90
2018-04-12T15:22:21.892Z,0.88
2018-04-12T15:24:48.997Z,0.90
2018-04-12T15:27:15.419Z,1.05
2018-04-12T15:29:41.842Z,1.40
2018-04-12T15:32:08.323Z,1.10
2018-04-12T15:34:34.782Z,1.35
2018-04-12T15:37:01.968Z,1.03
2018-04-12T15:39:28.385Z,1.02
2018-04-12T15:41:55.557Z,1.00
2018-04-12T15:44:21.963Z,1.00
2018-04-12T15:46:49.102Z,1.40
2018-04-12T15:49:16.220Z,1.40
2018-04-12T15:51:42.657Z,1.47
2018-04-12T15:54:09.081Z,2.00
2018-04-12T15:56:35.536Z,1.73
2018-04-12T15:59:02.023Z,1.20
2018-04-12T16:01:28.515Z,1.20
2018-04-12T16:03:55.736Z,1.00
2018-04-12T16:06:24.718Z,1.05
2018-04-12T16:08:53.277Z,1.37
2018-04-12T16:11:21.548Z,1.20
2018-04-12T16:13:50.874Z,1.20
2018-04-12T16:16:20.035Z,1.10
2018-04-12T16:18:49.484Z,0.80
2018-04-12T16:21:16.217Z,1.10
2018-04-12T16:23:50.334Z,1.50
2018-04-12T16:26:17.468Z,1.30
2018-04-12T16:28:46.902Z,1.80
2018-04-12T16:31:15.514Z,1.20
2018-04-12T16:33:47.216Z,1.62
2018-04-12T16:36:16.005Z,1.98
2018-04-12T16:38:44.613Z,1.80
2018-04-12T16:41:13.207Z,1.52
2018-04-12T16:43:41.914Z,1.80
2018-04-12T16:46:12.006Z,1.30
2018-04-12T16:48:40.374Z,1.30
2018-04-12T16:51:09.002Z,1.50
2018-04-12T16:53:37.622Z,1.20
2018-04-12T16:56:06.988Z,1.70
2018-04-12T16:58:33.371Z,1.80
2018-04-12T17:01:00.627Z,1.60
2018-04-12T17:03:27.766Z,2.00
2018-04-12T17:05:54.136Z,2.15
2018-04-12T17:08:20.616Z,2.35
2018-04-12T17:10:47.076Z,2.40
2018-04-12T17:13:14.211Z,1.62
2018-04-12T17:15:40.593Z,2.10
2018-04-12T17:18:18.467Z,1.30
2018-04-12T17:20:45.642Z,1.40
2018-04-12T17:23:12.071Z,1.20
2018-04-12T17:25:38.475Z,1.37
2018-04-12T17:28:04.889Z,1.40
2018-04-12T17:30:31.509Z,1.40
2018-04-12T17:32:57.952Z,1.30
2018-04-12T17:37:50.623Z,1.30
2018-04-12T17:40:17.043Z,1.20
2018-04-12T17:42:43.440Z,1.37
2018-04-12T17:45:09.881Z,1.30
2018-04-12T17:47:36.327Z,1.00
2018-04-12T17:50:03.395Z,1.30
2018-04-12T17:52:30.264Z,1.60
2018-04-12T17:54:56.668Z,0.98
2018-04-12T17:57:23.223Z,1.10
2018-04-12T17:59:50.719Z,1.50
2018-04-12T18:02:17.328Z,1.50
2018-04-12T18:04:43.754Z,1.10
2018-04-12T18:07:10.393Z,1.00
2018-04-12T18:09:37.378Z,1.20
2018-04-12T18:12:03.755Z,1.48
2018-04-12T18:14:30.213Z,0.90
2018-04-12T18:16:56.617Z,1.27
2018-04-12T18:19:23.056Z,0.97
2018-04-12T18:21:50.425Z,1.12
2018-04-12T18:24:16.981Z,1.48
2018-04-12T18:26:43.414Z,1.20
2018-04-12T18:29:09.828Z,2.33
2018-04-12T18:31:36.468Z,1.83
2018-04-12T18:34:02.922Z,1.40
2018-04-12T19:52:06.320Z,3.15
2018-04-12T19:54:33.465Z,2.50
2018-04-12T19:57:00.620Z,1.40
2018-04-12T19:59:27.737Z,1.15
2018-04-12T20:01:54.152Z,0.95
2018-04-12T20:04:20.512Z,1.25
2018-04-12T20:06:46.925Z,1.12
2018-04-12T20:09:13.308Z,2.33
2018-04-12T20:11:40.419Z,2.58
2018-04-12T20:14:06.897Z,4.12
2018-04-12T20:16:34.068Z,5.15
2018-04-12T20:19:00.502Z,9.70
2018-04-12T20:21:26.867Z,4.90
2018-04-12T20:23:53.248Z,1.77
2018-04-12T20:26:20.360Z,1.25
2018-04-12T20:28:46.749Z,1.02
2018-04-12T20:31:13.130Z,1.08
2018-04-12T20:33:39.502Z,0.95
2018-04-12T20:36:06.708Z,1.05
2018-04-12T20:38:33.117Z,1.20
2018-04-12T20:40:59.540Z,1.30
2018-04-12T20:43:25.963Z,1.17
2018-04-12T20:45:53.084Z,1.17
2018-04-12T20:48:19.468Z,1.58
2018-04-12T20:50:45.831Z,1.52
2018-04-12T20:53:12.219Z,1.30
2018-04-12T20:55:38.603Z,1.45
2018-04-12T20:58:04.973Z,1.30
2018-04-12T21:00:32.118Z,2.33
2018-04-12T21:02:59.273Z,1.50
2018-04-12T21:05:26.423Z,1.95
2018-04-12T21:07:52.889Z,1.60
2018-04-12T21:10:19.252Z,1.52
2018-04-12T21:12:45.641Z,2.60
2018-04-12T21:15:12.795Z,2.45
2018-04-12T21:17:39.160Z,1.20
2018-04-12T21:20:05.519Z,1.80
2018-04-12T21:22:31.901Z,5.12
2018-04-12T21:24:58.264Z,3.70
2018-04-12T21:27:24.683Z,4.10
2018-04-12T21:29:51.071Z,3.87
2018-04-12T21:32:17.433Z,3.00
2018-04-12T21:34:43.824Z,2.42
2018-04-12T21:37:10.214Z,2.33
2018-04-12T21:54:13.887Z,1.27
2018-04-12T21:56:40.276Z,1.30
2018-04-12T21:59:06.664Z,1.60
2018-04-12T22:01:33.788Z,1.48
2018-04-12T22:04:00.195Z,1.50
2018-04-12T22:06:26.622Z,2.00
2018-04-12T22:08:52.991Z,1.20
2018-04-12T22:11:19.452Z,1.60
2018-04-12T22:13:46.627Z,1.25
2018-04-12T22:16:13.797Z,1.60
2018-04-12T22:18:40.340Z,1.60
2018-04-12T22:21:06.735Z,1.80
2018-04-12T22:23:33.188Z,1.40
2018-04-12T22:25:59.560Z,1.60
2018-04-12T22:28:25.965Z,1.30
2018-04-12T22:30:52.333Z,1.40
2018-04-12T22:33:18.716Z,1.40
2018-04-12T22:35:45.110Z,1.60
2018-04-12T22:38:11.465Z,1.40
2018-04-12T22:40:38.595Z,1.52
2018-04-12T22:43:04.977Z,1.25
2018-04-12T22:45:31.413Z,1.40
2018-04-12T22:47:57.784Z,1.60
2018-04-12T22:50:24.184Z,1.35
2018-04-12T22:52:50.590Z,1.60
2018-04-12T22:55:17.682Z,1.50
2018-04-12T22:57:44.072Z,1.50
2018-04-12T23:00:12.096Z,1.90
2018-04-12T23:02:38.495Z,1.60
2018-04-12T23:05:04.924Z,1.40
2018-04-12T23:07:31.305Z,1.70
2018-04-12T23:09:57.713Z,1.67
2018-04-12T23:12:24.096Z,1.60
2018-04-12T23:14:50.480Z,1.48
2018-04-12T23:17:16.865Z,1.30
2018-04-12T23:19:43.985Z,1.55
2018-04-12T23:22:10.393Z,1.40
2018-04-12T23:24:36.821Z,1.20
2018-04-12T23:27:03.238Z,1.35
2018-04-12T23:29:30.368Z,1.60
2018-04-12T23:31:56.751Z,1.50
2018-04-12T23:34:23.144Z,1.52
2018-04-12T23:36:50.292Z,1.70
2018-04-12T23:39:17.432Z,1.60
2018-04-12T23:41:44.571Z,1.80
2018-04-12T23:44:10.951Z,2.00
2018-04-12T23:46:37.352Z,1.80
2018-04-12T23:49:03.776Z,1.50
2018-04-12T23:51:30.174Z,2.00
2018-04-12T23:53:56.585Z,1.48
2018-04-12T23:56:22.948Z,1.90
2018-04-12T23:58:49.349Z,1.73
